sensor_id;sensor_type;location;lat;lon;timestamp;P1;durP1;ratioP1;P2;durP2;ratioP2
7929;SDS011;4010;42.698;23.124;2023-03-14T00:01:56;12.80;;;7.78;;
7929;SDS011;4010;42.698;23.124;2023-03-14T00:04:23;17.40;;;8.93;;
7929;SDS011;4010;42.698;23.124;2023-03-14T00:06:50;13.32;;;7.60;;
7929;SDS011;4010;42.698;23.124;2023-03-14T00:09:17;17.42;;;9.10;;
7929;SDS011;4010;42.698;23.124;2023-03-14T00:11:43;19.42;;;9.25;;
7929;SDS011;4010;42.698;23.124;2023-03-14T00:14:12;15.65;;;7.63;;
7929;SDS011;4010;42.698;23.124;2023-03-14T00:16:40;13.52;;;8.43;;
7929;SDS011;4010;42.698;23.124;2023-03-14T00:19:07;14.48;;;6.95;;
7929;SDS011;4010;42.698;23.124;2023-03-14T00:21:34;16.60;;;7.90;;
7929;SDS011;4010;42.698;23.124;2023-03-14T00:24:00;13.40;;;7.70;;
7929;SDS011;4010;42.698;23.124;2023-03-14T00:26:27;19.50;;;9.07;;
7929;SDS011;4010;42.698;23.124;2023-03-14T00:28:54;11.25;;;7.65;;
7929;SDS011;4010;42.698;23.124;2023-03-14T00:31:22;9.60;;;6.60;;
7929;SDS011;4010;42.698;23.124;2023-03-14T00:33:50;15.15;;;8.75;;
7929;SDS011;4010;42.698;23.124;2023-03-14T00:36:18;18.38;;;8.55;;
7929;SDS011;4010;42.698;23.124;2023-03-14T00:38:46;13.93;;;8.00;;
7929;SDS011;4010;42.698;23.124;2023-03-14T00:41:14;13.38;;;6.65;;
7929;SDS011;4010;42.698;23.124;2023-03-14T00:43:43;10.23;;;6.38;;
7929;SDS011;4010;42.698;23.124;2023-03-14T00:46:10;11.63;;;7.57;;
7929;SDS011;4010;42.698;23.124;2023-03-14T00:48:39;14.57;;;8.18;;
7929;SDS011;4010;42.698;23.124;2023-03-14T00:51:06;15.90;;;9.10;;
7929;SDS011;4010;42.698;23.124;2023-03-14T00:53:35;16.52;;;9.32;;
7929;SDS011;4010;42.698;23.124;2023-03-14T00:56:02;19.58;;;9.52;;
7929;SDS011;4010;42.698;23.124;2023-03-14T00:58:30;17.83;;;9.20;;
7929;SDS011;4010;42.698;23.124;2023-03-14T01:00:56;16.20;;;9.68;;
7929;SDS011;4010;42.698;23.124;2023-03-14T01:03:23;22.90;;;8.85;;
7929;SDS011;4010;42.698;23.124;2023-03-14T01:05:51;14.23;;;8.95;;
7929;SDS011;4010;42.698;23.124;2023-03-14T01:08:18;18.48;;;10.68;;
7929;SDS011;4010;42.698;23.124;2023-03-14T01:10:45;17.70;;;10.40;;
7929;SDS011;4010;42.698;23.124;2023-03-14T01:13:11;19.80;;;11.50;;
7929;SDS011;4010;42.698;23.124;2023-03-14T01:15:38;18.52;;;10.20;;
7929;SDS011;4010;42.698;23.124;2023-03-14T01:18:05;16.73;;;9.30;;
7929;SDS011;4010;42.698;23.124;2023-03-14T01:20:32;13.50;;;8.77;;
7929;SDS011;4010;42.698;23.124;2023-03-14T01:23:00;13.23;;;8.40;;
7929;SDS011;4010;42.698;23.124;2023-03-14T01:25:26;19.55;;;10.60;;
7929;SDS011;4010;42.698;23.124;2023-03-14T01:27:53;15.02;;;9.55;;
7929;SDS011;4010;42.698;23.124;2023-03-14T01:30:20;15.38;;;8.45;;
7929;SDS011;4010;42.698;23.124;2023-03-14T01:32:46;14.13;;;7.57;;
7929;SDS011;4010;42.698;23.124;2023-03-14T01:35:13;12.65;;;7.18;;
7929;SDS011;4010;42.698;23.124;2023-03-14T01:37:40;16.63;;;8.20;;
7929;SDS011;4010;42.698;23.124;2023-03-14T01:40:10;11.82;;;8.18;;
7929;SDS011;4010;42.698;23.124;2023-03-14T01:42:44;14.88;;;6.80;;
7929;SDS011;4010;42.698;23.124;2023-03-14T01:48:11;16.17;;;8.10;;
7929;SDS011;4010;42.698;23.124;2023-03-14T01:50:37;13.43;;;8.10;;
7929;SDS011;4010;42.698;23.124;2023-03-14T01:53:04;12.75;;;7.60;;
7929;SDS011;4010;42.698;23.124;2023-03-14T01:55:32;17.65;;;7.43;;
7929;SDS011;4010;42.698;23.124;2023-03-14T01:58:00;16.30;;;8.38;;
7929;SDS011;4010;42.698;23.124;2023-03-14T02:00:30;16.30;;;8.02;;
7929;SDS011;4010;42.698;23.124;2023-03-14T02:02:58;17.98;;;9.48;;
7929;SDS011;4010;42.698;23.124;2023-03-14T02:05:28;16.33;;;9.30;;
7929;SDS011;4010;42.698;23.124;2023-03-14T02:07:58;15.95;;;8.75;;
7929;SDS011;4010;42.698;23.124;2023-03-14T02:10:28;11.77;;;7.68;;
7929;SDS011;4010;42.698;23.124;2023-03-14T02:12:59;14.10;;;7.80;;
7929;SDS011;4010;42.698;23.124;2023-03-14T02:15:28;17.67;;;8.77;;
7929;SDS011;4010;42.698;23.124;2023-03-14T02:17:55;15.25;;;7.93;;
7929;SDS011;4010;42.698;23.124;2023-03-14T02:20:28;17.65;;;9.55;;
7929;SDS011;4010;42.698;23.124;2023-03-14T02:23:01;16.80;;;9.32;;
7929;SDS011;4010;42.698;23.124;2023-03-14T02:25:31;10.05;;;7.47;;
7929;SDS011;4010;42.698;23.124;2023-03-14T02:28:08;13.73;;;8.93;;
7929;SDS011;4010;42.698;23.124;2023-03-14T02:30:36;12.25;;;7.90;;
7929;SDS011;4010;42.698;23.124;2023-03-14T02:33:03;12.93;;;8.05;;
7929;SDS011;4010;42.698;23.124;2023-03-14T02:35:34;11.85;;;6.97;;
7929;SDS011;4010;42.698;23.124;2023-03-14T02:38:05;12.93;;;7.35;;
7929;SDS011;4010;42.698;23.124;2023-03-14T02:40:37;12.25;;;8.70;;
7929;SDS011;4010;42.698;23.124;2023-03-14T02:43:03;12.07;;;7.22;;
7929;SDS011;4010;42.698;23.124;2023-03-14T02:45:41;12.30;;;7.47;;
7929;SDS011;4010;42.698;23.124;2023-03-14T02:48:14;11.15;;;7.38;;
7929;SDS011;4010;42.698;23.124;2023-03-14T02:50:43;11.95;;;7.07;;
7929;SDS011;4010;42.698;23.124;2023-03-14T02:53:12;16.17;;;7.03;;
7929;SDS011;4010;42.698;23.124;2023-03-14T02:55:44;9.80;;;6.57;;
7929;SDS011;4010;42.698;23.124;2023-03-14T02:58:12;18.27;;;7.95;;
7929;SDS011;4010;42.698;23.124;2023-03-14T03:00:39;13.25;;;7.55;;
7929;SDS011;4010;42.698;23.124;2023-03-14T03:03:07;12.02;;;7.35;;
7929;SDS011;4010;42.698;23.124;2023-03-14T03:05:34;11.57;;;7.25;;
7929;SDS011;4010;42.698;23.124;2023-03-14T03:08:01;9.57;;;6.03;;
7929;SDS011;4010;42.698;23.124;2023-03-14T03:10:28;10.80;;;7.13;;
7929;SDS011;4010;42.698;23.124;2023-03-14T03:12:55;8.38;;;5.78;;
7929;SDS011;4010;42.698;23.124;2023-03-14T03:15:22;11.43;;;6.82;;
7929;SDS011;4010;42.698;23.124;2023-03-14T03:17:49;10.00;;;6.13;;
7929;SDS011;4010;42.698;23.124;2023-03-14T03:20:17;14.48;;;7.30;;
7929;SDS011;4010;42.698;23.124;2023-03-14T03:22:44;19.50;;;7.45;;
7929;SDS011;4010;42.698;23.124;2023-03-14T03:25:10;13.60;;;6.95;;
7929;SDS011;4010;42.698;23.124;2023-03-14T03:27:37;10.63;;;7.00;;
7929;SDS011;4010;42.698;23.124;2023-03-14T03:30:05;10.23;;;6.38;;
7929;SDS011;4010;42.698;23.124;2023-03-14T03:32:33;10.68;;;6.22;;
7929;SDS011;4010;42.698;23.124;2023-03-14T03:34:59;13.65;;;7.68;;
7929;SDS011;4010;42.698;23.124;2023-03-14T03:37:29;9.85;;;5.82;;
7929;SDS011;4010;42.698;23.124;2023-03-14T03:39:56;13.02;;;7.82;;
7929;SDS011;4010;42.698;23.124;2023-03-14T03:42:22;11.88;;;7.28;;
7929;SDS011;4010;42.698;23.124;2023-03-14T03:44:49;29.77;;;14.18;;
7929;SDS011;4010;42.698;23.124;2023-03-14T03:47:16;26.98;;;12.07;;
7929;SDS011;4010;42.698;23.124;2023-03-14T03:49:43;21.02;;;11.50;;
7929;SDS011;4010;42.698;23.124;2023-03-14T03:52:09;30.25;;;14.07;;
7929;SDS011;4010;42.698;23.124;2023-03-14T03:54:37;27.08;;;13.65;;
7929;SDS011;4010;42.698;23.124;2023-03-14T03:57:04;13.20;;;6.60;;
7929;SDS011;4010;42.698;23.124;2023-03-14T03:59:31;9.90;;;6.70;;
7929;SDS011;4010;42.698;23.124;2023-03-14T04:01:58;8.63;;;5.55;;
7929;SDS011;4010;42.698;23.124;2023-03-14T04:04:24;8.77;;;5.78;;
7929;SDS011;4010;42.698;23.124;2023-03-14T04:06:51;8.95;;;6.07;;
7929;SDS011;4010;42.698;23.124;2023-03-14T04:09:18;9.30;;;5.85;;
7929;SDS011;4010;42.698;23.124;2023-03-14T04:11:46;6.47;;;4.97;;
7929;SDS011;4010;42.698;23.124;2023-03-14T04:14:13;17.13;;;6.40;;
7929;SDS011;4010;42.698;23.124;2023-03-14T04:16:39;9.25;;;6.65;;
7929;SDS011;4010;42.698;23.124;2023-03-14T04:19:06;8.77;;;5.90;;
7929;SDS011;4010;42.698;23.124;2023-03-14T04:21:33;8.15;;;6.00;;
7929;SDS011;4010;42.698;23.124;2023-03-14T04:23:59;9.55;;;5.97;;
7929;SDS011;4010;42.698;23.124;2023-03-14T04:26:26;9.80;;;6.65;;
7929;SDS011;4010;42.698;23.124;2023-03-14T04:28:54;10.40;;;7.13;;
7929;SDS011;4010;42.698;23.124;2023-03-14T04:31:21;9.25;;;6.95;;
7929;SDS011;4010;42.698;23.124;2023-03-14T04:33:48;13.35;;;8.52;;
7929;SDS011;4010;42.698;23.124;2023-03-14T04:36:15;8.95;;;6.35;;
7929;SDS011;4010;42.698;23.124;2023-03-14T04:38:41;10.00;;;5.78;;
7929;SDS011;4010;42.698;23.124;2023-03-14T04:41:08;10.48;;;7.38;;
7929;SDS011;4010;42.698;23.124;2023-03-14T04:43:35;10.60;;;7.85;;
7929;SDS011;4010;42.698;23.124;2023-03-14T04:46:03;9.32;;;5.72;;
7929;SDS011;4010;42.698;23.124;2023-03-14T04:48:30;12.45;;;7.72;;
7929;SDS011;4010;42.698;23.124;2023-03-14T04:50:57;17.45;;;7.25;;
7929;SDS011;4010;42.698;23.124;2023-03-14T04:53:23;13.23;;;7.07;;
7929;SDS011;4010;42.698;23.124;2023-03-14T04:55:50;12.13;;;6.97;;
7929;SDS011;4010;42.698;23.124;2023-03-14T04:58:18;13.95;;;7.30;;
7929;SDS011;4010;42.698;23.124;2023-03-14T05:00:45;13.50;;;8.25;;
7929;SDS011;4010;42.698;23.124;2023-03-14T05:03:14;18.02;;;7.85;;
7929;SDS011;4010;42.698;23.124;2023-03-14T05:05:41;15.38;;;9.02;;
7929;SDS011;4010;42.698;23.124;2023-03-14T05:08:08;16.13;;;9.13;;
7929;SDS011;4010;42.698;23.124;2023-03-14T05:10:34;17.13;;;9.23;;
7929;SDS011;4010;42.698;23.124;2023-03-14T05:13:01;14.60;;;8.82;;
7929;SDS011;4010;42.698;23.124;2023-03-14T05:15:28;13.82;;;7.28;;
7929;SDS011;4010;42.698;23.124;2023-03-14T05:17:55;86.05;;;32.83;;
7929;SDS011;4010;42.698;23.124;2023-03-14T05:20:23;33.28;;;16.50;;
7929;SDS011;4010;42.698;23.124;2023-03-14T05:22:50;42.70;;;24.10;;
7929;SDS011;4010;42.698;23.124;2023-03-14T05:25:16;26.87;;;16.77;;
7929;SDS011;4010;42.698;23.124;2023-03-14T05:27:43;22.30;;;12.37;;
7929;SDS011;4010;42.698;23.124;2023-03-14T05:30:10;16.63;;;11.27;;
7929;SDS011;4010;42.698;23.124;2023-03-14T05:32:37;11.20;;;8.20;;
7929;SDS011;4010;42.698;23.124;2023-03-14T05:35:04;9.43;;;6.70;;
7929;SDS011;4010;42.698;23.124;2023-03-14T05:37:33;9.67;;;5.83;;
7929;SDS011;4010;42.698;23.124;2023-03-14T05:40:00;10.03;;;6.83;;
7929;SDS011;4010;42.698;23.124;2023-03-14T05:42:29;9.20;;;6.60;;
7929;SDS011;4010;42.698;23.124;2023-03-14T05:44:56;10.10;;;6.90;;
7929;SDS011;4010;42.698;23.124;2023-03-14T05:47:23;11.53;;;7.37;;
7929;SDS011;4010;42.698;23.124;2023-03-14T05:49:49;12.07;;;6.63;;
7929;SDS011;4010;42.698;23.124;2023-03-14T05:52:16;9.10;;;5.27;;
7929;SDS011;4010;42.698;23.124;2023-03-14T05:54:44;6.00;;;4.43;;
7929;SDS011;4010;42.698;23.124;2023-03-14T05:57:11;8.30;;;5.00;;
7929;SDS011;4010;42.698;23.124;2023-03-14T05:59:38;8.67;;;5.47;;
7929;SDS011;4010;42.698;23.124;2023-03-14T06:02:05;10.50;;;6.53;;
7929;SDS011;4010;42.698;23.124;2023-03-14T06:04:32;9.50;;;5.90;;
7929;SDS011;4010;42.698;23.124;2023-03-14T06:06:59;8.87;;;5.77;;
7929;SDS011;4010;42.698;23.124;2023-03-14T06:09:25;8.93;;;5.60;;
7929;SDS011;4010;42.698;23.124;2023-03-14T06:11:53;7.03;;;4.30;;
7929;SDS011;4010;42.698;23.124;2023-03-14T06:14:20;6.37;;;3.90;;
7929;SDS011;4010;42.698;23.124;2023-03-14T06:16:47;5.17;;;3.47;;
7929;SDS011;4010;42.698;23.124;2023-03-14T06:19:14;3.63;;;3.30;;
7929;SDS011;4010;42.698;23.124;2023-03-14T06:21:41;4.23;;;3.67;;
7929;SDS011;4010;42.698;23.124;2023-03-14T06:24:07;5.43;;;3.13;;
7929;SDS011;4010;42.698;23.124;2023-03-14T06:26:34;3.40;;;2.97;;
7929;SDS011;4010;42.698;23.124;2023-03-14T06:29:02;3.47;;;3.13;;
7929;SDS011;4010;42.698;23.124;2023-03-14T06:31:30;4.47;;;3.83;;
7929;SDS011;4010;42.698;23.124;2023-03-14T06:33:57;5.63;;;3.93;;
7929;SDS011;4010;42.698;23.124;2023-03-14T06:36:24;7.40;;;3.73;;
7929;SDS011;4010;42.698;23.124;2023-03-14T06:38:50;3.90;;;3.50;;
7929;SDS011;4010;42.698;23.124;2023-03-14T06:41:17;8.40;;;3.87;;
7929;SDS011;4010;42.698;23.124;2023-03-14T06:43:44;8.63;;;3.63;;
7929;SDS011;4010;42.698;23.124;2023-03-14T06:46:12;4.77;;;3.23;;
7929;SDS011;4010;42.698;23.124;2023-03-14T06:48:40;5.67;;;3.57;;
7929;SDS011;4010;42.698;23.124;2023-03-14T06:51:07;5.23;;;3.60;;
7929;SDS011;4010;42.698;23.124;2023-03-14T06:53:34;4.90;;;3.40;;
7929;SDS011;4010;42.698;23.124;2023-03-14T06:56:00;7.43;;;4.00;;
7929;SDS011;4010;42.698;23.124;2023-03-14T06:58:27;5.17;;;4.03;;
7929;SDS011;4010;42.698;23.124;2023-03-14T07:00:54;5.37;;;3.47;;
7929;SDS011;4010;42.698;23.124;2023-03-14T07:03:23;4.17;;;3.37;;
7929;SDS011;4010;42.698;23.124;2023-03-14T07:05:50;5.20;;;3.73;;
7929;SDS011;4010;42.698;23.124;2023-03-14T07:08:17;6.57;;;4.00;;
7929;SDS011;4010;42.698;23.124;2023-03-14T07:10:43;4.70;;;3.87;;
7929;SDS011;4010;42.698;23.124;2023-03-14T07:13:10;8.83;;;3.43;;
7929;SDS011;4010;42.698;23.124;2023-03-14T07:15:37;6.17;;;4.17;;
7929;SDS011;4010;42.698;23.124;2023-03-14T07:18:04;4.90;;;3.90;;
7929;SDS011;4010;42.698;23.124;2023-03-14T07:20:32;5.03;;;3.97;;
7929;SDS011;4010;42.698;23.124;2023-03-14T07:22:58;4.97;;;3.73;;
7929;SDS011;4010;42.698;23.124;2023-03-14T07:25:27;5.13;;;4.20;;
7929;SDS011;4010;42.698;23.124;2023-03-14T07:27:54;6.27;;;4.17;;
7929;SDS011;4010;42.698;23.124;2023-03-14T07:30:21;7.13;;;4.33;;
7929;SDS011;4010;42.698;23.124;2023-03-14T07:32:48;6.43;;;4.10;;
7929;SDS011;4010;42.698;23.124;2023-03-14T07:35:14;4.83;;;4.00;;
7929;SDS011;4010;42.698;23.124;2023-03-14T07:37:42;5.07;;;4.33;;
7929;SDS011;4010;42.698;23.124;2023-03-14T07:40:10;6.23;;;4.30;;
7929;SDS011;4010;42.698;23.124;2023-03-14T07:42:40;5.77;;;3.97;;
7929;SDS011;4010;42.698;23.124;2023-03-14T07:45:07;6.53;;;3.93;;
7929;SDS011;4010;42.698;23.124;2023-03-14T07:47:35;4.13;;;3.73;;
7929;SDS011;4010;42.698;23.124;2023-03-14T07:50:02;7.17;;;4.07;;
7929;SDS011;4010;42.698;23.124;2023-03-14T07:52:29;5.93;;;4.30;;
7929;SDS011;4010;42.698;23.124;2023-03-14T07:54:57;4.30;;;3.80;;
7929;SDS011;4010;42.698;23.124;2023-03-14T07:57:24;4.97;;;4.17;;
7929;SDS011;4010;42.698;23.124;2023-03-14T07:59:51;4.67;;;3.93;;
7929;SDS011;4010;42.698;23.124;2023-03-14T08:02:18;7.33;;;3.77;;
7929;SDS011;4010;42.698;23.124;2023-03-14T08:04:47;6.07;;;4.10;;
7929;SDS011;4010;42.698;23.124;2023-03-14T08:07:14;7.83;;;4.17;;
7929;SDS011;4010;42.698;23.124;2023-03-14T08:09:40;6.83;;;4.27;;
7929;SDS011;4010;42.698;23.124;2023-03-14T08:12:08;5.63;;;4.00;;
7929;SDS011;4010;42.698;23.124;2023-03-14T08:14:35;6.80;;;3.83;;
7929;SDS011;4010;42.698;23.124;2023-03-14T08:17:02;5.70;;;3.80;;
7929;SDS011;4010;42.698;23.124;2023-03-14T08:19:29;4.30;;;3.87;;
7929;SDS011;4010;42.698;23.124;2023-03-14T08:21:56;4.80;;;4.20;;
7929;SDS011;4010;42.698;23.124;2023-03-14T08:24:23;6.20;;;4.47;;
7929;SDS011;4010;42.698;23.124;2023-03-14T08:26:49;6.50;;;4.27;;
7929;SDS011;4010;42.698;23.124;2023-03-14T08:29:17;4.13;;;3.73;;
7929;SDS011;4010;42.698;23.124;2023-03-14T08:31:44;5.87;;;3.97;;
7929;SDS011;4010;42.698;23.124;2023-03-14T08:34:11;6.27;;;4.20;;
7929;SDS011;4010;42.698;23.124;2023-03-14T08:36:38;5.20;;;3.67;;
7929;SDS011;4010;42.698;23.124;2023-03-14T08:39:04;5.20;;;4.17;;
7929;SDS011;4010;42.698;23.124;2023-03-14T08:41:32;6.17;;;4.40;;
7929;SDS011;4010;42.698;23.124;2023-03-14T08:44:05;6.97;;;4.20;;
7929;SDS011;4010;42.698;23.124;2023-03-14T08:46:33;7.40;;;5.00;;
7929;SDS011;4010;42.698;23.124;2023-03-14T08:49:00;6.70;;;5.27;;
7929;SDS011;4010;42.698;23.124;2023-03-14T08:51:27;6.30;;;4.40;;
7929;SDS011;4010;42.698;23.124;2023-03-14T08:53:54;6.20;;;5.07;;
7929;SDS011;4010;42.698;23.124;2023-03-14T08:56:20;9.97;;;4.87;;
7929;SDS011;4010;42.698;23.124;2023-03-14T08:58:47;6.83;;;4.70;;
7929;SDS011;4010;42.698;23.124;2023-03-14T09:01:14;8.17;;;5.60;;
7929;SDS011;4010;42.698;23.124;2023-03-14T09:03:42;8.20;;;5.67;;
7929;SDS011;4010;42.698;23.124;2023-03-14T09:06:09;7.70;;;5.67;;
7929;SDS011;4010;42.698;23.124;2023-03-14T09:08:36;10.30;;;6.53;;
7929;SDS011;4010;42.698;23.124;2023-03-14T09:11:05;9.23;;;6.47;;
7929;SDS011;4010;42.698;23.124;2023-03-14T09:13:33;10.47;;;6.33;;
7929;SDS011;4010;42.698;23.124;2023-03-14T09:16:00;9.73;;;6.17;;
7929;SDS011;4010;42.698;23.124;2023-03-14T09:18:27;10.20;;;6.73;;
7929;SDS011;4010;42.698;23.124;2023-03-14T09:20:55;12.60;;;8.80;;
7929;SDS011;4010;42.698;23.124;2023-03-14T09:23:22;12.60;;;6.70;;
7929;SDS011;4010;42.698;23.124;2023-03-14T09:25:49;10.53;;;7.30;;
7929;SDS011;4010;42.698;23.124;2023-03-14T09:28:20;12.10;;;7.53;;
7929;SDS011;4010;42.698;23.124;2023-03-14T09:30:46;11.97;;;7.83;;
7929;SDS011;4010;42.698;23.124;2023-03-14T09:33:14;17.03;;;8.47;;
7929;SDS011;4010;42.698;23.124;2023-03-14T09:35:41;10.73;;;7.83;;
7929;SDS011;4010;42.698;23.124;2023-03-14T09:38:09;21.43;;;8.03;;
7929;SDS011;4010;42.698;23.124;2023-03-14T09:40:37;13.37;;;7.93;;
7929;SDS011;4010;42.698;23.124;2023-03-14T09:43:04;10.10;;;7.40;;
7929;SDS011;4010;42.698;23.124;2023-03-14T09:45:33;10.33;;;7.37;;
7929;SDS011;4010;42.698;23.124;2023-03-14T09:48:02;13.73;;;8.70;;
7929;SDS011;4010;42.698;23.124;2023-03-14T09:50:31;19.63;;;8.67;;
7929;SDS011;4010;42.698;23.124;2023-03-14T09:53:03;12.03;;;8.60;;
7929;SDS011;4010;42.698;23.124;2023-03-14T09:55:34;14.87;;;9.03;;
7929;SDS011;4010;42.698;23.124;2023-03-14T09:58:02;14.53;;;8.70;;
7929;SDS011;4010;42.698;23.124;2023-03-14T10:00:35;14.60;;;8.90;;
7929;SDS011;4010;42.698;23.124;2023-03-14T10:03:07;11.37;;;8.50;;
7929;SDS011;4010;42.698;23.124;2023-03-14T10:05:48;14.40;;;8.90;;
7929;SDS011;4010;42.698;23.124;2023-03-14T10:08:14;15.50;;;11.50;;
7929;SDS011;4010;42.698;23.124;2023-03-14T10:10:42;11.03;;;8.63;;
7929;SDS011;4010;42.698;23.124;2023-03-14T10:13:12;13.30;;;9.33;;
7929;SDS011;4010;42.698;23.124;2023-03-14T10:15:41;11.40;;;7.97;;
7929;SDS011;4010;42.698;23.124;2023-03-14T10:18:13;11.87;;;8.20;;
7929;SDS011;4010;42.698;23.124;2023-03-14T10:20:43;14.20;;;8.27;;
7929;SDS011;4010;42.698;23.124;2023-03-14T10:23:22;11.30;;;7.87;;
7929;SDS011;4010;42.698;23.124;2023-03-14T10:26:04;10.70;;;7.50;;
7929;SDS011;4010;42.698;23.124;2023-03-14T10:28:34;11.60;;;7.23;;
7929;SDS011;4010;42.698;23.124;2023-03-14T10:31:05;12.97;;;7.63;;
7929;SDS011;4010;42.698;23.124;2023-03-14T10:33:32;9.50;;;6.90;;
7929;SDS011;4010;42.698;23.124;2023-03-14T10:36:00;10.63;;;7.20;;
7929;SDS011;4010;42.698;23.124;2023-03-14T10:38:30;10.33;;;7.13;;
7929;SDS011;4010;42.698;23.124;2023-03-14T10:40:58;9.23;;;6.63;;
7929;SDS011;4010;42.698;23.124;2023-03-14T10:43:27;12.63;;;6.50;;
7929;SDS011;4010;42.698;23.124;2023-03-14T10:45:58;8.33;;;5.53;;
7929;SDS011;4010;42.698;23.124;2023-03-14T10:48:31;9.23;;;6.60;;
7929;SDS011;4010;42.698;23.124;2023-03-14T10:51:04;11.00;;;6.30;;
7929;SDS011;4010;42.698;23.124;2023-03-14T10:53:34;7.40;;;5.90;;
7929;SDS011;4010;42.698;23.124;2023-03-14T10:56:07;9.50;;;6.00;;
7929;SDS011;4010;42.698;23.124;2023-03-14T10:58:40;7.83;;;5.57;;
7929;SDS011;4010;42.698;23.124;2023-03-14T11:01:12;7.73;;;5.83;;
7929;SDS011;4010;42.698;23.124;2023-03-14T11:03:50;9.33;;;6.30;;
7929;SDS011;4010;42.698;23.124;2023-03-14T11:06:20;9.43;;;6.13;;
7929;SDS011;4010;42.698;23.124;2023-03-14T11:08:54;8.13;;;5.07;;
7929;SDS011;4010;42.698;23.124;2023-03-14T11:11:30;9.43;;;5.87;;
7929;SDS011;4010;42.698;23.124;2023-03-14T11:14:03;9.63;;;5.80;;
7929;SDS011;4010;42.698;23.124;2023-03-14T11:16:41;6.83;;;5.17;;
7929;SDS011;4010;42.698;23.124;2023-03-14T11:19:20;8.77;;;5.10;;
7929;SDS011;4010;42.698;23.124;2023-03-14T11:22:08;9.20;;;5.20;;
7929;SDS011;4010;42.698;23.124;2023-03-14T11:24:47;8.60;;;5.40;;
7929;SDS011;4010;42.698;23.124;2023-03-14T11:27:22;8.60;;;5.20;;
7929;SDS011;4010;42.698;23.124;2023-03-14T11:29:55;7.57;;;5.20;;
7929;SDS011;4010;42.698;23.124;2023-03-14T11:32:27;7.87;;;5.13;;
7929;SDS011;4010;42.698;23.124;2023-03-14T11:35:03;6.67;;;4.93;;
7929;SDS011;4010;42.698;23.124;2023-03-14T11:37:40;6.53;;;4.80;;
7929;SDS011;4010;42.698;23.124;2023-03-14T11:40:13;6.37;;;4.67;;
7929;SDS011;4010;42.698;23.124;2023-03-14T11:42:43;9.13;;;4.90;;
7929;SDS011;4010;42.698;23.124;2023-03-14T11:45:15;9.20;;;5.00;;
7929;SDS011;4010;42.698;23.124;2023-03-14T11:47:44;5.47;;;4.43;;
7929;SDS011;4010;42.698;23.124;2023-03-14T11:50:20;6.40;;;3.80;;
7929;SDS011;4010;42.698;23.124;2023-03-14T11:52:51;5.70;;;4.50;;
7929;SDS011;4010;42.698;23.124;2023-03-14T11:55:24;5.90;;;4.27;;
7929;SDS011;4010;42.698;23.124;2023-03-14T11:57:56;5.80;;;4.57;;
7929;SDS011;4010;42.698;23.124;2023-03-14T12:00:29;7.00;;;4.13;;
7929;SDS011;4010;42.698;23.124;2023-03-14T12:02:57;7.00;;;3.60;;
7929;SDS011;4010;42.698;23.124;2023-03-14T12:08:18;5.10;;;3.87;;
7929;SDS011;4010;42.698;23.124;2023-03-14T12:10:52;5.03;;;3.70;;
7929;SDS011;4010;42.698;23.124;2023-03-14T12:13:22;6.17;;;4.20;;
7929;SDS011;4010;42.698;23.124;2023-03-14T12:15:57;5.27;;;3.90;;
7929;SDS011;4010;42.698;23.124;2023-03-14T12:18:26;8.13;;;4.03;;
7929;SDS011;4010;42.698;23.124;2023-03-14T12:20:56;6.90;;;4.03;;
7929;SDS011;4010;42.698;23.124;2023-03-14T12:23:24;4.50;;;3.80;;
7929;SDS011;4010;42.698;23.124;2023-03-14T12:26:13;5.67;;;4.30;;
7929;SDS011;4010;42.698;23.124;2023-03-14T12:28:43;6.63;;;4.63;;
7929;SDS011;4010;42.698;23.124;2023-03-14T12:39:47;9.07;;;4.17;;
7929;SDS011;4010;42.698;23.124;2023-03-14T12:42:35;6.53;;;4.47;;
7929;SDS011;4010;42.698;23.124;2023-03-14T12:45:14;7.87;;;4.73;;
7929;SDS011;4010;42.698;23.124;2023-03-14T12:47:55;5.50;;;4.30;;
7929;SDS011;4010;42.698;23.124;2023-03-14T12:50:42;5.43;;;4.30;;
7929;SDS011;4010;42.698;23.124;2023-03-14T12:56:23;6.60;;;4.20;;
7929;SDS011;4010;42.698;23.124;2023-03-14T12:59:02;5.73;;;4.27;;
7929;SDS011;4010;42.698;23.124;2023-03-14T13:01:44;6.30;;;3.73;;
7929;SDS011;4010;42.698;23.124;2023-03-14T13:04:20;4.80;;;3.50;;
7929;SDS011;4010;42.698;23.124;2023-03-14T13:06:55;5.90;;;3.20;;
7929;SDS011;4010;42.698;23.124;2023-03-14T13:12:41;3.23;;;2.60;;
7929;SDS011;4010;42.698;23.124;2023-03-14T13:15:18;4.03;;;3.37;;
7929;SDS011;4010;42.698;23.124;2023-03-14T13:17:48;6.10;;;2.70;;
7929;SDS011;4010;42.698;23.124;2023-03-14T13:20:20;3.77;;;2.90;;
7929;SDS011;4010;42.698;23.124;2023-03-14T13:22:51;4.93;;;2.90;;
7929;SDS011;4010;42.698;23.124;2023-03-14T13:25:17;4.93;;;2.70;;
7929;SDS011;4010;42.698;23.124;2023-03-14T13:27:46;3.60;;;2.70;;
7929;SDS011;4010;42.698;23.124;2023-03-14T13:30:22;4.70;;;2.83;;
7929;SDS011;4010;42.698;23.124;2023-03-14T13:32:51;4.27;;;2.73;;
7929;SDS011;4010;42.698;23.124;2023-03-14T13:35:21;3.63;;;2.50;;
7929;SDS011;4010;42.698;23.124;2023-03-14T13:37:56;5.20;;;2.50;;
7929;SDS011;4010;42.698;23.124;2023-03-14T13:40:26;3.67;;;2.37;;
7929;SDS011;4010;42.698;23.124;2023-03-14T13:43:01;2.50;;;2.30;;
7929;SDS011;4010;42.698;23.124;2023-03-14T13:45:30;3.40;;;2.27;;
7929;SDS011;4010;42.698;23.124;2023-03-14T13:47:57;2.67;;;2.33;;
7929;SDS011;4010;42.698;23.124;2023-03-14T13:50:25;3.33;;;2.33;;
7929;SDS011;4010;42.698;23.124;2023-03-14T13:52:55;2.60;;;2.23;;
7929;SDS011;4010;42.698;23.124;2023-03-14T13:55:23;2.87;;;2.13;;
7929;SDS011;4010;42.698;23.124;2023-03-14T13:57:50;3.27;;;2.07;;
7929;SDS011;4010;42.698;23.124;2023-03-14T14:00:21;2.40;;;2.13;;
7929;SDS011;4010;42.698;23.124;2023-03-14T14:02:51;2.60;;;1.80;;
7929;SDS011;4010;42.698;23.124;2023-03-14T14:05:20;4.77;;;2.20;;
7929;SDS011;4010;42.698;23.124;2023-03-14T14:07:48;3.80;;;1.83;;
7929;SDS011;4010;42.698;23.124;2023-03-14T14:10:17;3.07;;;1.60;;
7929;SDS011;4010;42.698;23.124;2023-03-14T14:12:45;2.23;;;1.80;;
7929;SDS011;4010;42.698;23.124;2023-03-14T14:15:16;2.40;;;1.80;;
7929;SDS011;4010;42.698;23.124;2023-03-14T14:17:48;4.53;;;1.80;;
7929;SDS011;4010;42.698;23.124;2023-03-14T14:20:20;2.63;;;2.10;;
7929;SDS011;4010;42.698;23.124;2023-03-14T14:22:58;2.20;;;2.00;;
7929;SDS011;4010;42.698;23.124;2023-03-14T14:25:26;3.47;;;1.77;;
7929;SDS011;4010;42.698;23.124;2023-03-14T14:27:54;7.63;;;1.90;;
7929;SDS011;4010;42.698;23.124;2023-03-14T14:30:25;2.30;;;2.00;;
7929;SDS011;4010;42.698;23.124;2023-03-14T14:33:06;1.83;;;1.63;;
7929;SDS011;4010;42.698;23.124;2023-03-14T14:35:38;4.03;;;2.00;;
7929;SDS011;4010;42.698;23.124;2023-03-14T14:38:10;2.53;;;1.73;;
7929;SDS011;4010;42.698;23.124;2023-03-14T14:40:45;2.00;;;1.80;;
7929;SDS011;4010;42.698;23.124;2023-03-14T14:43:15;1.70;;;1.60;;
7929;SDS011;4010;42.698;23.124;2023-03-14T14:45:45;3.20;;;1.63;;
7929;SDS011;4010;42.698;23.124;2023-03-14T14:48:15;2.73;;;1.50;;
7929;SDS011;4010;42.698;23.124;2023-03-14T14:50:49;4.20;;;1.70;;
7929;SDS011;4010;42.698;23.124;2023-03-14T14:53:28;4.07;;;1.70;;
7929;SDS011;4010;42.698;23.124;2023-03-14T14:55:57;3.27;;;1.77;;
7929;SDS011;4010;42.698;23.124;2023-03-14T14:58:25;4.03;;;2.00;;
7929;SDS011;4010;42.698;23.124;2023-03-14T15:00:54;4.60;;;1.90;;
7929;SDS011;4010;42.698;23.124;2023-03-14T15:03:25;3.00;;;1.57;;
7929;SDS011;4010;42.698;23.124;2023-03-14T15:05:55;2.33;;;1.50;;
7929;SDS011;4010;42.698;23.124;2023-03-14T15:08:21;1.67;;;1.50;;
7929;SDS011;4010;42.698;23.124;2023-03-14T15:10:51;1.40;;;1.30;;
7929;SDS011;4010;42.698;23.124;2023-03-14T15:13:18;2.97;;;1.73;;
7929;SDS011;4010;42.698;23.124;2023-03-14T15:15:44;3.77;;;1.73;;
7929;SDS011;4010;42.698;23.124;2023-03-14T15:18:13;2.27;;;1.60;;
7929;SDS011;4010;42.698;23.124;2023-03-14T15:20:41;2.90;;;1.30;;
7929;SDS011;4010;42.698;23.124;2023-03-14T15:23:12;2.63;;;1.67;;
7929;SDS011;4010;42.698;23.124;2023-03-14T15:25:40;4.13;;;1.53;;
7929;SDS011;4010;42.698;23.124;2023-03-14T15:28:12;2.40;;;1.30;;